sensor_id;sensor_type;location;lat;lon;timestamp;P1;durP1;ratioP1;P2;durP2;ratioP2
12474;SDS011;6302;42.624;23.334;2024-03-17T00:01:07;20.70;;;17.83;;
12474;SDS011;6302;42.624;23.334;2024-03-17T00:03:33;25.17;;;18.33;;
12474;SDS011;6302;42.624;23.334;2024-03-17T00:06:01;20.10;;;17.83;;
12474;SDS011;6302;42.624;23.334;2024-03-17T00:08:27;20.67;;;17.97;;
12474;SDS011;6302;42.624;23.334;2024-03-17T00:10:55;21.83;;;16.97;;
12474;SDS011;6302;42.624;23.334;2024-03-17T00:13:21;19.83;;;17.40;;
12474;SDS011;6302;42.624;23.334;2024-03-17T00:15:48;24.77;;;18.77;;
12474;SDS011;6302;42.624;23.334;2024-03-17T00:18:14;19.93;;;17.70;;
12474;SDS011;6302;42.624;23.334;2024-03-17T00:20:40;21.57;;;18.20;;
12474;SDS011;6302;42.624;23.334;2024-03-17T00:23:09;23.20;;;17.80;;
12474;SDS011;6302;42.624;23.334;2024-03-17T00:25:37;19.90;;;16.80;;
12474;SDS011;6302;42.624;23.334;2024-03-17T00:28:03;21.77;;;18.37;;
12474;SDS011;6302;42.624;23.334;2024-03-17T00:30:30;21.63;;;18.47;;
12474;SDS011;6302;42.624;23.334;2024-03-17T00:32:56;22.50;;;18.50;;
12474;SDS011;6302;42.624;23.334;2024-03-17T00:35:24;24.73;;;17.37;;
12474;SDS011;6302;42.624;23.334;2024-03-17T00:37:50;22.90;;;18.60;;
12474;SDS011;6302;42.624;23.334;2024-03-17T00:40:20;20.87;;;17.97;;
12474;SDS011;6302;42.624;23.334;2024-03-17T00:42:46;23.40;;;18.43;;
12474;SDS011;6302;42.624;23.334;2024-03-17T00:45:13;20.67;;;18.43;;
12474;SDS011;6302;42.624;23.334;2024-03-17T00:47:39;21.20;;;18.60;;
12474;SDS011;6302;42.624;23.334;2024-03-17T00:50:06;22.37;;;18.07;;
12474;SDS011;6302;42.624;23.334;2024-03-17T00:52:33;22.33;;;18.80;;
12474;SDS011;6302;42.624;23.334;2024-03-17T00:55:00;22.70;;;18.63;;
12474;SDS011;6302;42.624;23.334;2024-03-17T00:57:28;22.93;;;18.83;;
12474;SDS011;6302;42.624;23.334;2024-03-17T00:59:55;21.50;;;18.30;;
12474;SDS011;6302;42.624;23.334;2024-03-17T01:02:21;21.00;;;17.67;;
12474;SDS011;6302;42.624;23.334;2024-03-17T01:04:48;23.13;;;18.03;;
12474;SDS011;6302;42.624;23.334;2024-03-17T01:07:14;20.03;;;17.63;;
12474;SDS011;6302;42.624;23.334;2024-03-17T01:09:40;25.73;;;18.27;;
12474;SDS011;6302;42.624;23.334;2024-03-17T01:12:06;24.23;;;19.77;;
12474;SDS011;6302;42.624;23.334;2024-03-17T01:14:35;27.70;;;21.87;;
12474;SDS011;6302;42.624;23.334;2024-03-17T01:17:01;25.07;;;20.20;;
12474;SDS011;6302;42.624;23.334;2024-03-17T01:19:30;24.27;;;20.67;;
12474;SDS011;6302;42.624;23.334;2024-03-17T01:21:56;26.23;;;21.97;;
12474;SDS011;6302;42.624;23.334;2024-03-17T01:24:23;25.60;;;20.23;;
12474;SDS011;6302;42.624;23.334;2024-03-17T01:26:49;24.03;;;20.57;;
12474;SDS011;6302;42.624;23.334;2024-03-17T01:29:18;25.03;;;19.90;;
12474;SDS011;6302;42.624;23.334;2024-03-17T01:31:45;26.77;;;21.53;;
12474;SDS011;6302;42.624;23.334;2024-03-17T01:34:12;27.30;;;19.97;;
12474;SDS011;6302;42.624;23.334;2024-03-17T01:36:37;24.40;;;20.33;;
12474;SDS011;6302;42.624;23.334;2024-03-17T01:39:04;24.23;;;19.70;;
12474;SDS011;6302;42.624;23.334;2024-03-17T01:41:30;25.40;;;20.03;;
12474;SDS011;6302;42.624;23.334;2024-03-17T01:43:58;26.27;;;19.07;;
12474;SDS011;6302;42.624;23.334;2024-03-17T01:46:24;24.73;;;20.07;;
12474;SDS011;6302;42.624;23.334;2024-03-17T01:48:52;26.47;;;20.07;;
12474;SDS011;6302;42.624;23.334;2024-03-17T01:51:18;26.33;;;21.03;;
12474;SDS011;6302;42.624;23.334;2024-03-17T01:53:45;27.63;;;21.33;;
12474;SDS011;6302;42.624;23.334;2024-03-17T01:56:12;25.43;;;21.80;;
12474;SDS011;6302;42.624;23.334;2024-03-17T01:58:42;25.30;;;21.30;;
12474;SDS011;6302;42.624;23.334;2024-03-17T02:01:09;25.70;;;20.17;;
12474;SDS011;6302;42.624;23.334;2024-03-17T02:03:39;24.97;;;20.20;;
12474;SDS011;6302;42.624;23.334;2024-03-17T02:06:07;28.33;;;20.47;;
12474;SDS011;6302;42.624;23.334;2024-03-17T02:08:46;21.77;;;18.50;;
12474;SDS011;6302;42.624;23.334;2024-03-17T02:11:15;24.80;;;20.03;;
12474;SDS011;6302;42.624;23.334;2024-03-17T02:13:50;25.57;;;19.57;;
12474;SDS011;6302;42.624;23.334;2024-03-17T02:16:17;26.87;;;20.10;;
12474;SDS011;6302;42.624;23.334;2024-03-17T02:18:44;22.80;;;20.10;;
12474;SDS011;6302;42.624;23.334;2024-03-17T02:21:12;30.77;;;21.33;;
12474;SDS011;6302;42.624;23.334;2024-03-17T02:23:40;26.40;;;20.77;;
12474;SDS011;6302;42.624;23.334;2024-03-17T02:26:06;29.40;;;21.17;;
12474;SDS011;6302;42.624;23.334;2024-03-17T02:28:42;29.33;;;22.03;;
12474;SDS011;6302;42.624;23.334;2024-03-17T02:31:11;29.97;;;21.60;;
12474;SDS011;6302;42.624;23.334;2024-03-17T02:33:38;24.13;;;19.77;;
12474;SDS011;6302;42.624;23.334;2024-03-17T02:36:05;27.73;;;20.63;;
12474;SDS011;6302;42.624;23.334;2024-03-17T02:38:34;24.40;;;20.93;;
12474;SDS011;6302;42.624;23.334;2024-03-17T02:41:20;27.03;;;20.47;;
12474;SDS011;6302;42.624;23.334;2024-03-17T02:43:47;29.83;;;20.13;;
12474;SDS011;6302;42.624;23.334;2024-03-17T02:46:15;25.27;;;20.73;;
12474;SDS011;6302;42.624;23.334;2024-03-17T02:48:43;25.57;;;20.17;;
12474;SDS011;6302;42.624;23.334;2024-03-17T02:51:12;25.90;;;20.37;;
12474;SDS011;6302;42.624;23.334;2024-03-17T02:53:40;21.97;;;17.83;;
12474;SDS011;6302;42.624;23.334;2024-03-17T02:56:07;23.67;;;19.33;;
12474;SDS011;6302;42.624;23.334;2024-03-17T02:58:35;25.33;;;20.33;;
12474;SDS011;6302;42.624;23.334;2024-03-17T03:01:06;26.03;;;19.50;;
12474;SDS011;6302;42.624;23.334;2024-03-17T03:03:34;26.03;;;20.13;;
12474;SDS011;6302;42.624;23.334;2024-03-17T03:06:02;29.43;;;22.00;;
12474;SDS011;6302;42.624;23.334;2024-03-17T03:08:34;26.87;;;21.10;;
12474;SDS011;6302;42.624;23.334;2024-03-17T03:11:02;28.50;;;21.63;;
12474;SDS011;6302;42.624;23.334;2024-03-17T03:13:30;29.97;;;22.03;;
12474;SDS011;6302;42.624;23.334;2024-03-17T03:15:58;29.67;;;19.93;;
12474;SDS011;6302;42.624;23.334;2024-03-17T03:18:25;25.97;;;20.30;;
12474;SDS011;6302;42.624;23.334;2024-03-17T03:20:51;24.13;;;18.63;;
12474;SDS011;6302;42.624;23.334;2024-03-17T03:23:18;23.40;;;18.93;;
12474;SDS011;6302;42.624;23.334;2024-03-17T03:25:45;32.20;;;24.00;;
12474;SDS011;6302;42.624;23.334;2024-03-17T03:28:12;46.40;;;30.97;;
12474;SDS011;6302;42.624;23.334;2024-03-17T03:30:39;55.57;;;37.10;;
12474;SDS011;6302;42.624;23.334;2024-03-17T03:33:07;56.40;;;34.90;;
12474;SDS011;6302;42.624;23.334;2024-03-17T03:35:34;46.10;;;31.40;;
12474;SDS011;6302;42.624;23.334;2024-03-17T03:38:01;35.83;;;26.27;;
12474;SDS011;6302;42.624;23.334;2024-03-17T03:40:28;33.60;;;25.13;;
12474;SDS011;6302;42.624;23.334;2024-03-17T03:42:56;30.90;;;24.20;;
12474;SDS011;6302;42.624;23.334;2024-03-17T03:45:22;30.70;;;22.57;;
12474;SDS011;6302;42.624;23.334;2024-03-17T03:47:50;25.57;;;22.07;;
12474;SDS011;6302;42.624;23.334;2024-03-17T03:50:19;26.63;;;21.73;;
12474;SDS011;6302;42.624;23.334;2024-03-17T03:52:47;26.37;;;21.53;;
12474;SDS011;6302;42.624;23.334;2024-03-17T03:55:16;23.70;;;19.17;;
12474;SDS011;6302;42.624;23.334;2024-03-17T03:57:45;21.17;;;17.70;;
12474;SDS011;6302;42.624;23.334;2024-03-17T04:00:13;21.67;;;18.93;;
12474;SDS011;6302;42.624;23.334;2024-03-17T04:02:40;20.63;;;17.40;;
12474;SDS011;6302;42.624;23.334;2024-03-17T04:05:08;22.40;;;17.83;;
12474;SDS011;6302;42.624;23.334;2024-03-17T04:07:37;22.33;;;18.90;;
12474;SDS011;6302;42.624;23.334;2024-03-17T04:10:05;20.77;;;17.33;;
12474;SDS011;6302;42.624;23.334;2024-03-17T04:12:33;21.83;;;18.47;;
12474;SDS011;6302;42.624;23.334;2024-03-17T04:15:00;22.53;;;18.23;;
12474;SDS011;6302;42.624;23.334;2024-03-17T04:17:28;22.23;;;18.33;;
12474;SDS011;6302;42.624;23.334;2024-03-17T04:19:54;22.57;;;18.70;;
12474;SDS011;6302;42.624;23.334;2024-03-17T04:22:21;24.43;;;18.67;;
12474;SDS011;6302;42.624;23.334;2024-03-17T04:24:50;24.30;;;18.73;;
12474;SDS011;6302;42.624;23.334;2024-03-17T04:27:19;22.13;;;18.77;;
12474;SDS011;6302;42.624;23.334;2024-03-17T04:29:46;23.83;;;19.20;;
12474;SDS011;6302;42.624;23.334;2024-03-17T04:32:13;22.23;;;19.20;;
12474;SDS011;6302;42.624;23.334;2024-03-17T04:34:40;23.43;;;18.67;;
12474;SDS011;6302;42.624;23.334;2024-03-17T04:37:08;27.50;;;18.27;;
12474;SDS011;6302;42.624;23.334;2024-03-17T04:39:36;20.63;;;16.90;;
12474;SDS011;6302;42.624;23.334;2024-03-17T04:42:05;23.07;;;18.23;;
12474;SDS011;6302;42.624;23.334;2024-03-17T04:44:32;24.27;;;17.97;;
12474;SDS011;6302;42.624;23.334;2024-03-17T04:46:59;23.17;;;17.77;;
12474;SDS011;6302;42.624;23.334;2024-03-17T04:49:26;21.90;;;17.27;;
12474;SDS011;6302;42.624;23.334;2024-03-17T04:51:52;21.90;;;16.27;;
12474;SDS011;6302;42.624;23.334;2024-03-17T04:54:19;20.20;;;16.67;;
12474;SDS011;6302;42.624;23.334;2024-03-17T04:56:46;21.17;;;16.77;;
12474;SDS011;6302;42.624;23.334;2024-03-17T04:59:14;24.47;;;19.10;;
12474;SDS011;6302;42.624;23.334;2024-03-17T05:01:41;22.13;;;17.50;;
12474;SDS011;6302;42.624;23.334;2024-03-17T05:04:08;21.60;;;17.33;;
12474;SDS011;6302;42.624;23.334;2024-03-17T05:06:35;22.87;;;17.97;;
12474;SDS011;6302;42.624;23.334;2024-03-17T05:09:03;22.40;;;17.57;;
12474;SDS011;6302;42.624;23.334;2024-03-17T05:11:30;25.23;;;19.40;;
12474;SDS011;6302;42.624;23.334;2024-03-17T05:13:58;21.33;;;18.17;;
12474;SDS011;6302;42.624;23.334;2024-03-17T05:16:26;25.77;;;18.63;;
12474;SDS011;6302;42.624;23.334;2024-03-17T05:18:54;24.60;;;20.07;;
12474;SDS011;6302;42.624;23.334;2024-03-17T05:21:21;22.67;;;17.87;;
12474;SDS011;6302;42.624;23.334;2024-03-17T05:23:49;21.87;;;18.03;;
12474;SDS011;6302;42.624;23.334;2024-03-17T05:26:16;20.83;;;17.73;;
12474;SDS011;6302;42.624;23.334;2024-03-17T05:28:42;23.97;;;19.10;;
12474;SDS011;6302;42.624;23.334;2024-03-17T05:31:10;25.30;;;19.80;;
12474;SDS011;6302;42.624;23.334;2024-03-17T05:33:41;23.53;;;18.27;;
12474;SDS011;6302;42.624;23.334;2024-03-17T05:36:08;24.60;;;19.13;;
12474;SDS011;6302;42.624;23.334;2024-03-17T05:38:35;22.27;;;19.13;;
12474;SDS011;6302;42.624;23.334;2024-03-17T05:41:02;26.90;;;18.30;;
12474;SDS011;6302;42.624;23.334;2024-03-17T05:43:30;26.20;;;19.17;;
12474;SDS011;6302;42.624;23.334;2024-03-17T05:46:01;27.07;;;20.50;;
12474;SDS011;6302;42.624;23.334;2024-03-17T05:48:31;27.13;;;20.03;;
12474;SDS011;6302;42.624;23.334;2024-03-17T05:51:00;27.63;;;20.63;;
12474;SDS011;6302;42.624;23.334;2024-03-17T05:53:27;25.63;;;20.03;;
12474;SDS011;6302;42.624;23.334;2024-03-17T05:55:58;25.23;;;19.60;;
12474;SDS011;6302;42.624;23.334;2024-03-17T05:58:25;27.60;;;20.57;;
12474;SDS011;6302;42.624;23.334;2024-03-17T06:00:52;24.23;;;18.67;;
12474;SDS011;6302;42.624;23.334;2024-03-17T06:03:19;23.40;;;18.63;;
12474;SDS011;6302;42.624;23.334;2024-03-17T06:05:46;26.30;;;19.63;;
12474;SDS011;6302;42.624;23.334;2024-03-17T06:08:16;23.83;;;19.07;;
12474;SDS011;6302;42.624;23.334;2024-03-17T06:10:43;24.23;;;20.07;;
12474;SDS011;6302;42.624;23.334;2024-03-17T06:13:11;25.13;;;20.10;;
12474;SDS011;6302;42.624;23.334;2024-03-17T06:15:40;23.00;;;19.33;;
12474;SDS011;6302;42.624;23.334;2024-03-17T06:18:07;31.67;;;20.00;;
12474;SDS011;6302;42.624;23.334;2024-03-17T06:20:39;24.03;;;19.73;;
12474;SDS011;6302;42.624;23.334;2024-03-17T06:23:07;22.73;;;18.53;;
12474;SDS011;6302;42.624;23.334;2024-03-17T06:25:38;21.20;;;18.17;;
12474;SDS011;6302;42.624;23.334;2024-03-17T06:28:05;26.20;;;19.33;;
12474;SDS011;6302;42.624;23.334;2024-03-17T06:30:32;24.63;;;19.30;;
12474;SDS011;6302;42.624;23.334;2024-03-17T06:33:01;30.13;;;23.27;;
12474;SDS011;6302;42.624;23.334;2024-03-17T06:35:28;31.77;;;21.63;;
12474;SDS011;6302;42.624;23.334;2024-03-17T06:37:58;27.93;;;21.67;;
12474;SDS011;6302;42.624;23.334;2024-03-17T06:40:26;28.10;;;20.00;;
12474;SDS011;6302;42.624;23.334;2024-03-17T06:42:54;27.80;;;21.57;;
12474;SDS011;6302;42.624;23.334;2024-03-17T06:45:21;26.87;;;20.70;;
12474;SDS011;6302;42.624;23.334;2024-03-17T06:47:48;28.20;;;20.40;;
12474;SDS011;6302;42.624;23.334;2024-03-17T06:50:15;25.23;;;20.00;;
12474;SDS011;6302;42.624;23.334;2024-03-17T06:52:41;27.90;;;20.27;;
12474;SDS011;6302;42.624;23.334;2024-03-17T06:55:08;24.57;;;20.67;;
12474;SDS011;6302;42.624;23.334;2024-03-17T06:57:36;25.50;;;20.10;;
12474;SDS011;6302;42.624;23.334;2024-03-17T07:00:05;26.50;;;20.50;;
12474;SDS011;6302;42.624;23.334;2024-03-17T07:02:39;27.40;;;20.90;;
12474;SDS011;6302;42.624;23.334;2024-03-17T07:05:06;26.87;;;20.67;;
12474;SDS011;6302;42.624;23.334;2024-03-17T07:07:33;24.27;;;20.67;;
12474;SDS011;6302;42.624;23.334;2024-03-17T07:10:00;25.73;;;20.33;;
12474;SDS011;6302;42.624;23.334;2024-03-17T07:12:30;25.83;;;19.90;;
12474;SDS011;6302;42.624;23.334;2024-03-17T07:14:56;24.63;;;20.17;;
12474;SDS011;6302;42.624;23.334;2024-03-17T07:17:25;23.77;;;18.57;;
12474;SDS011;6302;42.624;23.334;2024-03-17T07:19:51;24.13;;;19.90;;
12474;SDS011;6302;42.624;23.334;2024-03-17T07:22:18;23.67;;;19.30;;
12474;SDS011;6302;42.624;23.334;2024-03-17T07:24:45;21.53;;;17.70;;
12474;SDS011;6302;42.624;23.334;2024-03-17T07:27:12;21.97;;;16.93;;
12474;SDS011;6302;42.624;23.334;2024-03-17T07:29:39;22.57;;;17.53;;
12474;SDS011;6302;42.624;23.334;2024-03-17T07:32:06;22.17;;;17.90;;
12474;SDS011;6302;42.624;23.334;2024-03-17T07:34:34;19.70;;;16.93;;
12474;SDS011;6302;42.624;23.334;2024-03-17T07:37:01;22.57;;;17.13;;
12474;SDS011;6302;42.624;23.334;2024-03-17T07:39:28;21.47;;;15.87;;
12474;SDS011;6302;42.624;23.334;2024-03-17T07:41:57;21.67;;;15.93;;
12474;SDS011;6302;42.624;23.334;2024-03-17T07:44:24;22.10;;;16.50;;
12474;SDS011;6302;42.624;23.334;2024-03-17T07:46:51;21.03;;;15.63;;
12474;SDS011;6302;42.624;23.334;2024-03-17T07:49:18;23.40;;;16.70;;
12474;SDS011;6302;42.624;23.334;2024-03-17T07:51:46;20.70;;;16.73;;
12474;SDS011;6302;42.624;23.334;2024-03-17T07:54:13;21.67;;;16.80;;
12474;SDS011;6302;42.624;23.334;2024-03-17T07:56:39;22.93;;;16.87;;
12474;SDS011;6302;42.624;23.334;2024-03-17T07:59:06;20.30;;;16.23;;
12474;SDS011;6302;42.624;23.334;2024-03-17T08:01:37;19.60;;;15.50;;
12474;SDS011;6302;42.624;23.334;2024-03-17T08:04:04;21.47;;;15.53;;
12474;SDS011;6302;42.624;23.334;2024-03-17T08:06:31;20.47;;;16.83;;
12474;SDS011;6302;42.624;23.334;2024-03-17T08:08:59;20.67;;;17.33;;
12474;SDS011;6302;42.624;23.334;2024-03-17T08:11:26;22.67;;;17.50;;
12474;SDS011;6302;42.624;23.334;2024-03-17T08:13:53;20.60;;;17.53;;
12474;SDS011;6302;42.624;23.334;2024-03-17T08:16:20;25.60;;;18.47;;
12474;SDS011;6302;42.624;23.334;2024-03-17T08:18:47;22.37;;;18.33;;
12474;SDS011;6302;42.624;23.334;2024-03-17T08:21:14;23.53;;;17.67;;
12474;SDS011;6302;42.624;23.334;2024-03-17T08:23:40;22.77;;;17.27;;
12474;SDS011;6302;42.624;23.334;2024-03-17T08:26:09;22.13;;;17.87;;
12474;SDS011;6302;42.624;23.334;2024-03-17T08:28:36;23.00;;;18.20;;
12474;SDS011;6302;42.624;23.334;2024-03-17T08:31:03;23.93;;;18.43;;
12474;SDS011;6302;42.624;23.334;2024-03-17T08:33:30;25.13;;;19.23;;
12474;SDS011;6302;42.624;23.334;2024-03-17T08:35:59;20.00;;;17.57;;
12474;SDS011;6302;42.624;23.334;2024-03-17T08:38:27;28.23;;;20.50;;
12474;SDS011;6302;42.624;23.334;2024-03-17T08:40:55;24.27;;;19.57;;
12474;SDS011;6302;42.624;23.334;2024-03-17T08:43:23;24.13;;;19.17;;
12474;SDS011;6302;42.624;23.334;2024-03-17T08:45:56;26.67;;;19.50;;
12474;SDS011;6302;42.624;23.334;2024-03-17T08:48:26;23.53;;;20.23;;
12474;SDS011;6302;42.624;23.334;2024-03-17T08:50:54;28.90;;;21.00;;
12474;SDS011;6302;42.624;23.334;2024-03-17T08:53:21;29.40;;;22.13;;
12474;SDS011;6302;42.624;23.334;2024-03-17T08:55:49;25.13;;;20.17;;
12474;SDS011;6302;42.624;23.334;2024-03-17T08:58:16;27.30;;;21.27;;
12474;SDS011;6302;42.624;23.334;2024-03-17T09:00:44;29.73;;;21.40;;
12474;SDS011;6302;42.624;23.334;2024-03-17T09:03:11;27.30;;;21.07;;
12474;SDS011;6302;42.624;23.334;2024-03-17T09:05:38;27.10;;;21.37;;
12474;SDS011;6302;42.624;23.334;2024-03-17T09:08:06;24.93;;;19.57;;
12474;SDS011;6302;42.624;23.334;2024-03-17T09:10:38;29.80;;;20.57;;
12474;SDS011;6302;42.624;23.334;2024-03-17T09:13:05;20.00;;;17.17;;
12474;SDS011;6302;42.624;23.334;2024-03-17T09:15:32;21.43;;;18.00;;
12474;SDS011;6302;42.624;23.334;2024-03-17T09:18:00;18.97;;;16.03;;
12474;SDS011;6302;42.624;23.334;2024-03-17T09:20:28;15.17;;;13.30;;
12474;SDS011;6302;42.624;23.334;2024-03-17T09:22:56;15.83;;;13.73;;
12474;SDS011;6302;42.624;23.334;2024-03-17T09:25:23;14.10;;;12.70;;
12474;SDS011;6302;42.624;23.334;2024-03-17T09:27:50;13.10;;;11.70;;
12474;SDS011;6302;42.624;23.334;2024-03-17T09:30:17;12.53;;;11.23;;
12474;SDS011;6302;42.624;23.334;2024-03-17T09:32:44;10.87;;;9.87;;
12474;SDS011;6302;42.624;23.334;2024-03-17T09:35:14;11.10;;;9.90;;
12474;SDS011;6302;42.624;23.334;2024-03-17T09:37:40;10.77;;;9.00;;
12474;SDS011;6302;42.624;23.334;2024-03-17T09:40:09;10.20;;;9.10;;
12474;SDS011;6302;42.624;23.334;2024-03-17T09:42:40;13.77;;;10.57;;
12474;SDS011;6302;42.624;23.334;2024-03-17T09:45:08;11.07;;;9.57;;
12474;SDS011;6302;42.624;23.334;2024-03-17T09:47:36;12.00;;;9.30;;
12474;SDS011;6302;42.624;23.334;2024-03-17T09:50:04;10.53;;;9.20;;
12474;SDS011;6302;42.624;23.334;2024-03-17T09:52:40;4.53;;;3.83;;
12474;SDS011;6302;42.624;23.334;2024-03-17T09:55:09;4.67;;;4.27;;
12474;SDS011;6302;42.624;23.334;2024-03-17T09:57:41;8.53;;;7.57;;
12474;SDS011;6302;42.624;23.334;2024-03-17T10:00:10;8.20;;;6.70;;
12474;SDS011;6302;42.624;23.334;2024-03-17T10:02:41;3.93;;;3.50;;
12474;SDS011;6302;42.624;23.334;2024-03-17T10:05:19;7.90;;;6.40;;
12474;SDS011;6302;42.624;23.334;2024-03-17T10:07:48;6.40;;;5.20;;
12474;SDS011;6302;42.624;23.334;2024-03-17T10:10:16;8.90;;;6.90;;
12474;SDS011;6302;42.624;23.334;2024-03-17T10:12:47;5.27;;;4.40;;
12474;SDS011;6302;42.624;23.334;2024-03-17T10:15:16;4.20;;;3.80;;
12474;SDS011;6302;42.624;23.334;2024-03-17T10:17:43;5.03;;;4.30;;
12474;SDS011;6302;42.624;23.334;2024-03-17T10:20:14;7.23;;;6.17;;
12474;SDS011;6302;42.624;23.334;2024-03-17T10:22:59;6.00;;;5.50;;
12474;SDS011;6302;42.624;23.334;2024-03-17T10:25:26;8.43;;;5.50;;
12474;SDS011;6302;42.624;23.334;2024-03-17T10:27:54;12.13;;;5.77;;
12474;SDS011;6302;42.624;23.334;2024-03-17T10:30:21;4.63;;;4.23;;
12474;SDS011;6302;42.624;23.334;2024-03-17T10:32:53;4.63;;;4.23;;
12474;SDS011;6302;42.624;23.334;2024-03-17T10:35:26;4.73;;;4.23;;
12474;SDS011;6302;42.624;23.334;2024-03-17T10:37:54;5.53;;;5.03;;
12474;SDS011;6302;42.624;23.334;2024-03-17T10:40:24;5.00;;;4.60;;
12474;SDS011;6302;42.624;23.334;2024-03-17T10:42:52;6.03;;;5.07;;
12474;SDS011;6302;42.624;23.334;2024-03-17T10:45:19;6.10;;;5.50;;
12474;SDS011;6302;42.624;23.334;2024-03-17T10:47:47;8.10;;;5.50;;
12474;SDS011;6302;42.624;23.334;2024-03-17T10:50:16;5.40;;;4.67;;
12474;SDS011;6302;42.624;23.334;2024-03-17T10:52:45;7.00;;;5.90;;
12474;SDS011;6302;42.624;23.334;2024-03-17T10:55:19;6.27;;;5.67;;
12474;SDS011;6302;42.624;23.334;2024-03-17T10:57:50;6.40;;;5.70;;
12474;SDS011;6302;42.624;23.334;2024-03-17T11:00:18;6.43;;;5.33;;
12474;SDS011;6302;42.624;23.334;2024-03-17T11:02:47;5.67;;;5.10;;
12474;SDS011;6302;42.624;23.334;2024-03-17T11:05:17;6.13;;;5.53;;
12474;SDS011;6302;42.624;23.334;2024-03-17T11:07:47;4.70;;;4.30;;
12474;SDS011;6302;42.624;23.334;2024-03-17T11:10:18;5.90;;;5.30;;
12474;SDS011;6302;42.624;23.334;2024-03-17T11:12:46;5.00;;;4.60;;
12474;SDS011;6302;42.624;23.334;2024-03-17T11:15:35;4.90;;;4.40;;
12474;SDS011;6302;42.624;23.334;2024-03-17T11:21:01;4.60;;;3.97;;
12474;SDS011;6302;42.624;23.334;2024-03-17T11:23:33;5.60;;;5.00;;
12474;SDS011;6302;42.624;23.334;2024-03-17T11:26:02;6.53;;;5.57;;
12474;SDS011;6302;42.624;23.334;2024-03-17T11:28:47;6.37;;;5.73;;
12474;SDS011;6302;42.624;23.334;2024-03-17T11:34:06;6.97;;;6.37;;
12474;SDS011;6302;42.624;23.334;2024-03-17T11:36:51;6.07;;;5.43;;
12474;SDS011;6302;42.624;23.334;2024-03-17T11:39:19;5.90;;;5.40;;
12474;SDS011;6302;42.624;23.334;2024-03-17T11:41:46;6.10;;;5.50;;
12474;SDS011;6302;42.624;23.334;2024-03-17T11:44:16;7.97;;;7.03;;
12474;SDS011;6302;42.624;23.334;2024-03-17T11:46:52;7.03;;;6.13;;
12474;SDS011;6302;42.624;23.334;2024-03-17T11:49:21;15.67;;;10.47;;
12474;SDS011;6302;42.624;23.334;2024-03-17T11:51:48;7.53;;;6.47;;
12474;SDS011;6302;42.624;23.334;2024-03-17T11:54:16;8.90;;;7.83;;
12474;SDS011;6302;42.624;23.334;2024-03-17T11:56:44;6.27;;;5.43;;
12474;SDS011;6302;42.624;23.334;2024-03-17T11:59:12;7.87;;;7.07;;
12474;SDS011;6302;42.624;23.334;2024-03-17T12:01:39;5.27;;;4.77;;
12474;SDS011;6302;42.624;23.334;2024-03-17T12:04:06;5.97;;;5.23;;
12474;SDS011;6302;42.624;23.334;2024-03-17T12:06:33;5.43;;;4.93;;
12474;SDS011;6302;42.624;23.334;2024-03-17T12:09:10;4.63;;;4.23;;
12474;SDS011;6302;42.624;23.334;2024-03-17T12:11:43;5.05;;;4.55;;
12474;SDS011;6302;42.624;23.334;2024-03-17T12:14:16;4.73;;;4.33;;
12474;SDS011;6302;42.624;23.334;2024-03-17T12:16:49;5.30;;;4.80;;
12474;SDS011;6302;42.624;23.334;2024-03-17T12:19:17;5.50;;;5.00;;
12474;SDS011;6302;42.624;23.334;2024-03-17T12:21:43;6.27;;;5.37;;
12474;SDS011;6302;42.624;23.334;2024-03-17T12:24:14;5.57;;;5.07;;
12474;SDS011;6302;42.624;23.334;2024-03-17T12:26:42;6.47;;;5.23;;
12474;SDS011;6302;42.624;23.334;2024-03-17T12:29:25;5.73;;;5.23;;
12474;SDS011;6302;42.624;23.334;2024-03-17T12:31:54;5.73;;;5.13;;
12474;SDS011;6302;42.624;23.334;2024-03-17T12:34:23;5.10;;;4.60;;
12474;SDS011;6302;42.624;23.334;2024-03-17T12:36:51;5.17;;;4.67;;
12474;SDS011;6302;42.624;23.334;2024-03-17T12:39:19;5.23;;;4.73;;
12474;SDS011;6302;42.624;23.334;2024-03-17T12:41:54;7.63;;;5.57;;
12474;SDS011;6302;42.624;23.334;2024-03-17T12:44:28;8.33;;;5.93;;
12474;SDS011;6302;42.624;23.334;2024-03-17T12:46:56;5.53;;;5.00;;
12474;SDS011;6302;42.624;23.334;2024-03-17T12:49:25;5.67;;;5.07;;
12474;SDS011;6302;42.624;23.334;2024-03-17T12:51:51;5.63;;;5.10;;
12474;SDS011;6302;42.624;23.334;2024-03-17T12:54:19;6.17;;;5.57;;
12474;SDS011;6302;42.624;23.334;2024-03-17T12:56:48;6.73;;;5.10;;
12474;SDS011;6302;42.624;23.334;2024-03-17T12:59:39;6.53;;;5.80;;
12474;SDS011;6302;42.624;23.334;2024-03-17T13:02:34;6.20;;;5.60;;
12474;SDS011;6302;42.624;23.334;2024-03-17T13:05:07;7.13;;;5.63;;
12474;SDS011;6302;42.624;23.334;2024-03-17T13:07:41;6.30;;;5.13;;
12474;SDS011;6302;42.624;23.334;2024-03-17T13:10:08;6.33;;;5.77;;
12474;SDS011;6302;42.624;23.334;2024-03-17T13:12:35;7.07;;;6.27;;
12474;SDS011;6302;42.624;23.334;2024-03-17T13:15:03;6.13;;;5.43;;
12474;SDS011;6302;42.624;23.334;2024-03-17T13:17:30;7.87;;;7.10;;
12474;SDS011;6302;42.624;23.334;2024-03-17T13:20:00;7.63;;;6.87;;
12474;SDS011;6302;42.624;23.334;2024-03-17T13:22:27;8.77;;;7.20;;
12474;SDS011;6302;42.624;23.334;2024-03-17T13:24:54;7.30;;;6.47;;
12474;SDS011;6302;42.624;23.334;2024-03-17T13:27:21;8.80;;;7.00;;
12474;SDS011;6302;42.624;23.334;2024-03-17T13:29:48;9.20;;;6.40;;
12474;SDS011;6302;42.624;23.334;2024-03-17T13:32:15;7.30;;;6.60;;
12474;SDS011;6302;42.624;23.334;2024-03-17T13:34:42;7.20;;;6.50;;
12474;SDS011;6302;42.624;23.334;2024-03-17T13:37:11;7.50;;;6.80;;
12474;SDS011;6302;42.624;23.334;2024-03-17T13:39:37;9.90;;;8.50;;
12474;SDS011;6302;42.624;23.334;2024-03-17T13:42:04;8.20;;;7.07;;
12474;SDS011;6302;42.624;23.334;2024-03-17T13:44:32;7.97;;;7.17;;
12474;SDS011;6302;42.624;23.334;2024-03-17T13:47:00;7.67;;;6.97;;
12474;SDS011;6302;42.624;23.334;2024-03-17T13:49:28;7.67;;;6.87;;
12474;SDS011;6302;42.624;23.334;2024-03-17T13:51:55;8.47;;;7.57;;
12474;SDS011;6302;42.624;23.334;2024-03-17T13:54:24;8.70;;;7.83;;
12474;SDS011;6302;42.624;23.334;2024-03-17T13:56:51;8.57;;;7.30;;
12474;SDS011;6302;42.624;23.334;2024-03-17T13:59:19;8.47;;;7.67;;
12474;SDS011;6302;42.624;23.334;2024-03-17T14:01:47;7.97;;;7.17;;
12474;SDS011;6302;42.624;23.334;2024-03-17T14:04:14;8.87;;;7.67;;
12474;SDS011;6302;42.624;23.334;2024-03-17T14:06:43;8.80;;;7.90;;
12474;SDS011;6302;42.624;23.334;2024-03-17T14:09:11;9.37;;;8.37;;
12474;SDS011;6302;42.624;23.334;2024-03-17T14:11:38;8.80;;;8.00;;
12474;SDS011;6302;42.624;23.334;2024-03-17T14:14:05;8.50;;;7.67;;
12474;SDS011;6302;42.624;23.334;2024-03-17T14:16:33;9.00;;;8.10;;
12474;SDS011;6302;42.624;23.334;2024-03-17T14:18:59;9.80;;;8.80;;
12474;SDS011;6302;42.624;23.334;2024-03-17T14:21:27;9.03;;;8.13;;
12474;SDS011;6302;42.624;23.334;2024-03-17T14:23:54;9.43;;;8.03;;
12474;SDS011;6302;42.624;23.334;2024-03-17T14:26:21;12.77;;;8.63;;
12474;SDS011;6302;42.624;23.334;2024-03-17T14:28:50;12.90;;;9.03;;
12474;SDS011;6302;42.624;23.334;2024-03-17T14:31:19;8.80;;;7.90;;
12474;SDS011;6302;42.624;23.334;2024-03-17T14:33:46;7.87;;;7.07;;
12474;SDS011;6302;42.624;23.334;2024-03-17T14:36:13;8.83;;;7.93;;
12474;SDS011;6302;42.624;23.334;2024-03-17T14:38:39;9.00;;;8.10;;
12474;SDS011;6302;42.624;23.334;2024-03-17T14:41:08;9.00;;;8.10;;
12474;SDS011;6302;42.624;23.334;2024-03-17T14:43:36;9.60;;;8.47;;